Time;durP1;ratioP1;P1;durP2;ratioP2;P2;SDS_P1;SDS_P2;PMS_P1;PMS_P2;Temp;Humidity;BMP_temperature;BMP_pressure;BME280_temperature;BME280_humidity;BME280_pressure;Samples;Min_cycle;Max_cycle;Signal;HPM_P1;HPM_P2
2022/01/22 00:02:10;;;;;;;12.48;6.40;;;;;;;0.02;100.00;99799.56;4958336;28;20411;-78
2022/01/22 00:04:36;;;;;;;15.40;6.35;;;;;;;-0.01;100.00;99787.63;5011475;28;20064;-78
2022/01/22 00:07:02;;;;;;;13.00;5.38;;;;;;;0.16;100.00;99809.78;5033067;28;20045;-78
2022/01/22 00:09:36;;;;;;;11.20;5.15;;;;;;;0.06;100.00;99792.75;5030228;28;20491;-78
2022/01/22 00:15:12;;;;;;;14.70;5.95;;;;;;;0.14;100.00;99807.22;4932971;29;20071;-78
2022/01/22 00:17:37;;;;;;;13.93;6.32;;;;;;;0.04;100.00;99787.59;4932837;29;20040;-78
2022/01/22 00:20:05;;;;;;;10.05;5.00;;;;;;;0.06;100.00;99797.84;4932999;29;20055;-78
2022/01/22 00:22:33;;;;;;;14.25;6.03;;;;;;;0.05;100.00;99789.34;4932673;29;20032;-78
2022/01/22 00:25:00;;;;;;;12.35;5.55;;;;;;;0.14;100.00;99812.34;4913739;29;20032;-79
2022/01/22 00:27:27;;;;;;;13.85;7.63;;;;;;;0.07;100.00;99797.84;4913761;29;20456;-78
2022/01/22 00:29:53;;;;;;;15.73;8.40;;;;;;;0.18;100.00;99818.31;4913864;29;20036;-78
2022/01/22 00:32:18;;;;;;;16.45;6.95;;;;;;;0.15;100.00;99803.81;4913917;29;20543;-78
2022/01/22 00:34:44;;;;;;;14.50;6.40;;;;;;;0.19;100.00;99805.50;4913508;29;20044;-78
2022/01/22 00:37:10;;;;;;;11.98;6.50;;;;;;;0.22;100.00;99812.34;4913603;29;20200;-78
2022/01/22 00:39:36;;;;;;;11.73;6.35;;;;;;;0.18;100.00;99801.25;4913335;29;20055;-79
2022/01/22 00:42:16;;;;;;;11.85;5.90;;;;;;;0.17;100.00;99802.13;4913693;29;20408;-78
2022/01/22 00:44:51;;;;;;;13.85;5.85;;;;;;;0.21;100.00;99814.06;4912374;29;20480;-78
2022/01/22 00:47:19;;;;;;;12.68;5.07;;;;;;;0.22;100.00;99810.63;4913676;29;20063;-78
2022/01/22 00:49:46;;;;;;;9.45;6.28;;;;;;;0.23;100.00;99816.59;4913231;29;20040;-79
2022/01/22 00:52:13;;;;;;;12.15;6.00;;;;;;;0.26;100.00;99808.06;4969560;28;20045;-78
2022/01/22 00:54:38;;;;;;;10.82;6.05;;;;;;;0.16;100.00;99794.41;5029422;28;20030;-78
2022/01/22 00:57:04;;;;;;;9.55;5.88;;;;;;;0.32;100.00;99811.47;5024879;28;20429;-79
2022/01/22 00:59:29;;;;;;;7.35;4.90;;;;;;;0.32;100.00;99810.59;5012546;28;20038;-78
2022/01/22 01:01:55;;;;;;;10.68;6.30;;;;;;;0.35;100.00;99814.03;4977586;28;20117;-78
2022/01/22 01:04:21;;;;;;;20.63;8.73;;;;;;;0.28;100.00;99798.66;5012602;28;20450;-78
2022/01/22 01:06:47;;;;;;;12.30;7.00;;;;;;;0.38;100.00;99803.78;5011485;28;20449;-78
2022/01/22 01:09:14;;;;;;;9.40;6.35;;;;;;;0.24;100.00;99775.59;5012333;28;20435;-78
2022/01/22 01:11:48;;;;;;;13.50;6.82;;;;;;;0.22;100.00;99779.91;5012153;28;20030;-78
2022/01/22 01:14:20;;;;;;;9.63;5.22;;;;;;;0.39;100.00;99802.06;5012242;28;20048;-79
2022/01/22 01:17:09;;;;;;;9.23;4.60;;;;;;;0.42;100.00;99805.47;5011913;28;20481;-78
2022/01/22 01:33:51;;;;;;;9.70;5.43;;;;;;;0.33;100.00;99768.75;4951175;29;20467;-78
2022/01/22 01:36:17;;;;;;;7.45;4.72;;;;;;;0.49;100.00;99801.16;4951330;29;20039;-78
2022/01/22 01:38:50;;;;;;;7.93;4.95;;;;;;;0.45;100.00;99787.50;4951188;29;20102;-79
2022/01/22 01:41:26;;;;;;;8.32;4.78;;;;;;;0.44;100.00;99790.06;4951657;29;20472;-79
2022/01/22 01:43:52;;;;;;;6.28;4.28;;;;;;;0.45;100.00;99795.19;4951504;29;20126;-78
2022/01/22 01:46:18;;;;;;;6.93;4.53;;;;;;;0.46;100.00;99784.09;4951573;29;20134;-78
2022/01/22 01:48:43;;;;;;;11.77;5.10;;;;;;;0.49;100.00;99806.28;4950991;29;20042;-78
2022/01/22 01:51:10;;;;;;;7.90;5.20;;;;;;;0.33;100.00;99776.44;4951144;29;20086;-79
2022/01/22 01:53:58;;;;;;;6.50;4.55;;;;;;;0.52;100.00;99803.72;4951005;29;20027;-78
2022/01/22 01:59:12;;;;;;;12.13;5.22;;;;;;;0.51;100.00;99789.22;4970652;28;20521;-79
2022/01/22 02:01:37;;;;;;;7.70;3.88;;;;;;;0.53;100.00;99791.75;4989629;28;20042;-78
2022/01/22 02:04:03;;;;;;;9.32;5.10;;;;;;;0.49;100.00;99793.47;4994140;28;20029;-78
2022/01/22 02:06:28;;;;;;;8.95;5.00;;;;;;;0.52;100.00;99797.75;5011526;28;20508;-78
2022/01/22 02:08:53;;;;;;;10.23;5.15;;;;;;;0.52;100.00;99793.47;5011612;28;20061;-78
2022/01/22 02:11:22;;;;;;;9.52;5.10;;;;;;;0.56;100.00;99791.75;5011644;28;20038;-78
2022/01/22 02:14:03;;;;;;;8.80;5.07;;;;;;;0.53;100.00;99786.63;5011286;28;20030;-78
2022/01/22 02:25:07;;;;;;;9.00;4.60;;;;;;;0.53;100.00;99791.75;4973895;28;20063;-78
2022/01/22 02:27:35;;;;;;;8.02;4.38;;;;;;;0.52;100.00;99795.19;4957040;28;20118;-78
2022/01/22 02:30:02;;;;;;;7.07;5.10;;;;;;;0.48;100.00;99790.06;4957241;28;20046;-78
2022/01/22 02:35:29;;;;;;;6.72;4.82;;;;;;;0.48;100.00;99796.91;4973427;28;20034;-79
2022/01/22 02:37:56;;;;;;;5.45;4.55;;;;;;;0.36;100.00;99784.97;4972805;28;20092;-79
2022/01/22 02:40:36;;;;;;;6.68;4.68;;;;;;;0.35;100.00;99775.59;4973309;28;20494;-78
2022/01/22 02:43:09;;;;;;;9.27;4.80;;;;;;;0.55;100.00;99807.97;4972091;28;20039;-78
2022/01/22 02:45:35;;;;;;;7.40;4.60;;;;;;;0.50;100.00;99805.41;4956766;28;20035;-78
2022/01/22 02:48:00;;;;;;;7.10;4.65;;;;;;;0.52;100.00;99810.56;4940834;28;20042;-78
2022/01/22 02:50:26;;;;;;;7.90;4.70;;;;;;;0.45;100.00;99802.03;4957106;28;20388;-78
2022/01/22 02:52:52;;;;;;;7.43;5.10;;;;;;;0.56;100.00;99818.22;4991011;28;20121;-78
2022/01/22 02:55:18;;;;;;;13.43;6.57;;;;;;;0.55;100.00;99813.97;5014386;28;20358;-78
2022/01/22 02:57:45;;;;;;;8.35;5.18;;;;;;;0.50;100.00;99810.53;5023356;28;20110;-78
2022/01/22 03:00:17;;;;;;;5.22;4.57;;;;;;;0.53;100.00;99818.22;5034316;28;20064;-78
2022/01/22 03:02:43;;;;;;;7.72;5.50;;;;;;;0.42;100.00;99797.78;4979589;28;20419;-78
2022/01/22 03:05:10;;;;;;;8.30;5.35;;;;;;;0.45;100.00;99805.44;5011875;28;20132;-78
2022/01/22 03:07:37;;;;;;;6.78;4.97;;;;;;;0.41;100.00;99803.75;5011540;28;20029;-79
2022/01/22 03:10:04;;;;;;;6.15;4.78;;;;;;;0.52;100.00;99831.91;5011746;28;20066;-79
2022/01/22 03:12:49;;;;;;;13.30;6.47;;;;;;;0.45;100.00;99818.25;5011438;28;20120;-78
2022/01/22 03:15:47;;;;;;;7.95;5.40;;;;;;;0.44;100.00;99826.81;5011729;28;20505;-79
2022/01/22 03:18:19;;;;;;;12.02;7.63;;;;;;;0.41;100.00;99837.03;5011615;28;20038;-78
2022/01/22 03:21:05;;;;;;;6.75;5.72;;;;;;;0.44;100.00;99843.88;5011283;28;20085;-78
2022/01/22 03:29:19;;;;;;;7.97;6.07;;;;;;;0.46;100.00;99844.72;4971823;28;20038;-78
2022/01/22 03:31:45;;;;;;;15.23;7.47;;;;;;;0.49;100.00;99863.50;4972119;28;20041;-78
2022/01/22 03:34:11;;;;;;;10.38;7.22;;;;;;;0.35;100.00;99839.63;4958972;28;20039;-78
2022/01/22 03:36:36;;;;;;;17.15;8.93;;;;;;;0.46;100.00;99866.09;4952594;28;20035;-78
2022/01/22 03:39:08;;;;;;;10.35;7.07;;;;;;;0.47;100.00;99869.50;4952792;29;20054;-78
2022/01/22 03:41:34;;;;;;;8.13;6.35;;;;;;;0.37;100.00;99866.09;4952881;29;20134;-78
2022/01/22 03:44:00;;;;;;;12.63;7.72;;;;;;;0.47;100.00;99880.63;4952927;28;20400;-78
2022/01/22 03:46:27;;;;;;;18.60;10.02;;;;;;;0.40;100.00;99878.06;4952808;29;20035;-78
2022/01/22 03:48:53;;;;;;;31.30;14.77;;;;;;;0.43;100.00;99894.28;4952823;28;20050;-78
2022/01/22 03:51:18;;;;;;;11.52;7.45;;;;;;;0.44;100.00;99905.38;4952716;29;20039;-78
2022/01/22 03:53:44;;;;;;;32.10;16.40;;;;;;;0.38;100.00;99903.69;4952348;28;20074;-78
2022/01/22 03:56:11;;;;;;;13.07;9.07;;;;;;;0.36;100.00;99907.09;4952572;29;20039;-79
2022/01/22 03:58:43;;;;;;;25.10;12.32;;;;;;;0.42;100.00;99919.88;4966271;28;20051;-78
2022/01/22 04:02:00;;;;;;;14.60;8.88;;;;;;;0.27;100.00;99907.13;5018676;28;20115;-78
2022/01/22 04:04:14;;;;;;;60.35;29.17;;;;;;;0.36;100.00;99927.59;5032854;28;20076;-78
2022/01/22 04:09:12;;;;;;;20.67;11.10;;;;;;;0.22;100.00;99923.34;5033187;28;20322;-78
2022/01/22 04:11:42;;;;;;;8.77;6.72;;;;;;;0.20;100.00;99921.63;5032833;28;20025;-78
2022/01/22 04:14:14;;;;;;;126.82;52.70;;;;;;;0.09;100.00;99908.00;5032865;28;20456;-79
2022/01/22 04:16:58;;;;;;;82.25;36.15;;;;;;;0.15;100.00;99920.78;5032307;28;20112;-78
2022/01/22 04:24:54;;;;;;;18.63;13.77;;;;;;;0.23;100.00;99945.53;5032329;28;20041;-78
2022/01/22 04:27:27;;;;;;;19.38;12.30;;;;;;;0.24;100.00;99952.34;5015606;28;20041;-78
2022/01/22 04:29:54;;;;;;;8.70;6.38;;;;;;;0.17;100.00;99948.09;5032365;28;20072;-78
2022/01/22 04:32:20;;;;;;;13.65;8.55;;;;;;;0.08;100.00;99934.44;5032542;28;20033;-78
2022/01/22 04:34:45;;;;;;;19.65;9.77;;;;;;;0.16;100.00;99948.94;5030941;28;20024;-78
2022/01/22 04:37:11;;;;;;;20.45;10.40;;;;;;;0.07;100.00;99937.84;5032402;28;20029;-78
2022/01/22 04:39:37;;;;;;;8.77;6.57;;;;;;;0.22;100.00;99968.59;5032067;28;20377;-78
2022/01/22 04:42:03;;;;;;;14.07;8.48;;;;;;;0.21;100.00;99972.00;5030263;28;20029;-78
2022/01/22 04:44:34;;;;;;;87.53;31.63;;;;;;;0.17;100.00;99970.28;5031003;28;20029;-78
2022/01/22 04:52:42;;;;;;;8.23;6.70;;;;;;;0.13;100.00;99991.66;4990480;28;20034;-78
2022/01/22 04:55:09;;;;;;;30.75;16.73;;;;;;;0.04;100.00;99995.03;4990310;28;20554;-78
2022/01/22 04:57:38;;;;;;;37.50;14.23;;;;;;;0.00;100.00;100006.16;4989949;28;20042;-78
2022/01/22 05:00:10;;;;;;;13.27;7.78;;;;;;;-0.18;100.00;99994.13;4990362;28;20620;-79
2022/01/22 05:02:36;;;;;;;18.35;9.55;;;;;;;-0.16;100.00;100005.25;4990107;28;20088;-78
2022/01/22 05:05:03;;;;;;;11.10;7.43;;;;;;;-0.17;100.00;100018.91;4990103;28;20050;-78
2022/01/22 05:07:28;;;;;;;11.13;7.63;;;;;;;-0.30;100.00;100006.91;4973966;28;20038;-78
2022/01/22 05:09:54;;;;;;;14.80;9.00;;;;;;;-0.39;100.00;100017.09;4973584;28;20044;-78
2022/01/22 05:12:19;;;;;;;22.70;13.13;;;;;;;-0.48;100.00;100015.38;4990300;28;20041;-78
2022/01/22 05:14:44;;;;;;;21.60;10.27;;;;;;;-0.42;100.00;100045.25;4989979;28;20034;-78
2022/01/22 05:17:10;;;;;;;20.52;11.80;;;;;;;-0.56;100.00;100030.69;4990059;28;20121;-78
2022/01/22 05:22:17;;;;;;;10.57;7.78;;;;;;;-0.65;100.00;100030.66;4990136;28;20124;-78
2022/01/22 05:24:48;;;;;;;20.35;11.90;;;;;;;-0.56;100.00;100063.09;4989788;28;20035;-78
2022/01/22 05:33:01;;;;;;;49.00;20.63;;;;;;;-0.59;100.00;100083.53;5031483;28;20095;-78
2022/01/22 05:38:10;;;;;;;49.80;21.80;;;;;;;-0.69;100.00;100077.53;5031957;28;20056;-78
2022/01/22 05:40:36;;;;;;;52.22;20.48;;;;;;;-0.59;100.00;100097.22;5032126;28;20385;-78
2022/01/22 05:43:03;;;;;;;52.78;20.30;;;;;;;-0.65;100.00;100089.47;5031606;28;20473;-78
2022/01/22 05:45:29;;;;;;;44.03;19.67;;;;;;;-0.60;100.00;100104.84;5030339;28;20056;-78
2022/01/22 05:47:56;;;;;;;42.05;18.08;;;;;;;-0.59;100.00;100106.56;5031375;28;20462;-78
2022/01/22 05:53:01;;;;;;;27.85;14.68;;;;;;;-0.63;100.00;100108.28;5032996;28;20076;-78
2022/01/22 06:00:55;;;;;;;124.10;44.78;;;;;;;-0.72;100.00;100120.13;5035073;28;20079;-78
2022/01/22 06:03:21;;;;;;;105.28;41.70;;;;;;;-0.74;100.00;100121.84;5017637;28;20542;-78
2022/01/22 06:05:46;;;;;;;37.90;18.55;;;;;;;-0.67;100.00;100134.69;5035247;28;20028;-78
2022/01/22 06:08:15;;;;;;;22.30;14.23;;;;;;;-0.65;100.00;100148.31;5035251;28;20040;-78
2022/01/22 06:10:45;;;;;;;49.45;20.70;;;;;;;-0.66;100.00;100148.31;5034640;28;20036;-78
2022/01/22 06:13:15;;;;;;;36.13;17.58;;;;;;;-0.68;100.00;100152.56;5034921;28;20056;-78
2022/01/22 06:15:40;;;;;;;24.02;14.20;;;;;;;-0.78;100.00;100133.75;5034845;28;20064;-78
2022/01/22 06:18:06;;;;;;;15.88;11.30;;;;;;;-0.71;100.00;100152.56;5017120;28;20112;-78
2022/01/22 06:20:32;;;;;;;22.60;12.35;;;;;;;-0.64;100.00;100165.38;5035293;28;20030;-78
2022/01/22 06:22:59;;;;;;;13.65;9.88;;;;;;;-0.59;100.00;100168.84;5034969;28;20424;-78
2022/01/22 06:25:24;;;;;;;22.00;13.05;;;;;;;-0.58;100.00;100162.88;5016999;28;20025;-78
2022/01/22 06:27:49;;;;;;;23.35;11.73;;;;;;;-0.62;100.00;100171.38;5016695;28;20045;-78
2022/01/22 06:30:15;;;;;;;15.82;9.63;;;;;;;-0.58;100.00;100185.91;5034814;28;20071;-78
2022/01/22 06:32:41;;;;;;;12.88;10.70;;;;;;;-0.60;100.00;100182.47;5017099;28;20389;-78
2022/01/22 06:35:07;;;;;;;14.25;10.57;;;;;;;-0.63;100.00;100186.69;5016409;28;20102;-79
2022/01/22 06:37:32;;;;;;;18.38;10.30;;;;;;;-0.60;100.00;100195.25;5016970;28;20025;-78
2022/01/22 06:42:32;;;;;;;16.65;11.15;;;;;;;-0.69;100.00;100182.41;5034361;28;20044;-78
2022/01/22 06:45:02;;;;;;;13.65;10.02;;;;;;;-0.66;100.00;100210.56;5034409;28;20065;-78
2022/01/22 06:47:29;;;;;;;12.13;9.23;;;;;;;-0.81;100.00;100198.50;5016696;28;20461;-78
2022/01/22 06:49:57;;;;;;;11.07;9.20;;;;;;;-0.81;100.00;100221.50;5016523;28;20025;-78
2022/01/22 06:52:23;;;;;;;12.70;9.77;;;;;;;-0.96;100.00;100203.50;5034675;28;20026;-78
2022/01/22 06:54:50;;;;;;;13.60;10.52;;;;;;;-0.92;100.00;100214.63;5033947;28;20087;-78
2022/01/22 06:57:16;;;;;;;17.02;12.77;;;;;;;-0.90;100.00;100202.69;5034362;28;20057;-78
2022/01/22 06:59:42;;;;;;;16.38;12.43;;;;;;;-0.79;100.00;100235.19;5051505;28;20131;-78
2022/01/22 07:02:09;;;;;;;17.38;11.90;;;;;;;-0.76;100.00;100239.44;5031223;28;20034;-78
2022/01/22 07:04:37;;;;;;;14.43;11.77;;;;;;;-0.91;100.00;100221.44;5030506;28;20037;-79
2022/01/22 07:07:09;;;;;;;15.98;12.63;;;;;;;-0.76;100.00;100257.34;5031364;28;20080;-78
2022/01/22 07:09:36;;;;;;;21.70;14.50;;;;;;;-0.85;100.00;100260.69;5015047;28;20064;-78
2022/01/22 07:12:03;;;;;;;25.25;14.23;;;;;;;-1.01;100.00;100233.28;5014615;28;20057;-79
2022/01/22 07:14:29;;;;;;;22.15;14.35;;;;;;;-0.91;100.00;100262.34;5014878;28;20067;-78
2022/01/22 07:16:55;;;;;;;24.38;15.80;;;;;;;-0.97;100.00;100259.72;5031126;28;20113;-78
2022/01/22 07:19:21;;;;;;;32.33;20.45;;;;;;;-0.86;100.00;100265.81;5011427;28;20478;-79
2022/01/22 07:21:56;;;;;;;34.15;18.25;;;;;;;-0.89;100.00;100255.53;5011444;28;20647;-78
2022/01/22 07:24:26;;;;;;;25.75;15.45;;;;;;;-0.73;100.00;100277.00;5011568;28;20453;-78
2022/01/22 07:26:52;;;;;;;18.70;13.60;;;;;;;-0.67;100.00;100272.81;5011335;28;20626;-78
2022/01/22 07:29:20;;;;;;;21.83;13.70;;;;;;;-0.58;100.00;100283.13;5011293;28;20042;-78
2022/01/22 07:31:46;;;;;;;19.88;13.25;;;;;;;-0.48;100.00;100289.16;5010910;28;20030;-78
2022/01/22 07:34:11;;;;;;;24.90;15.32;;;;;;;-0.52;100.00;100274.63;5029816;28;20537;-78
2022/01/22 07:36:37;;;;;;;29.92;18.52;;;;;;;-0.53;100.00;100272.91;5014435;28;20072;-78
2022/01/22 07:39:04;;;;;;;36.05;22.20;;;;;;;-0.41;100.00;100297.75;5030678;28;20120;-78
2022/01/22 07:41:30;;;;;;;24.20;16.67;;;;;;;-0.35;100.00;100300.34;5014548;28;20048;-78
2022/01/22 07:43:55;;;;;;;37.25;22.08;;;;;;;-0.26;100.00;100313.22;5030913;28;20034;-77
2022/01/22 07:46:21;;;;;;;57.58;26.48;;;;;;;-0.32;100.00;100298.69;5014244;28;20087;-75
2022/01/22 07:48:49;;;;;;;83.20;38.20;;;;;;;-0.11;100.00;100328.72;5030679;28;20037;-75
2022/01/22 07:51:16;;;;;;;92.10;41.17;;;;;;;0.07;100.00;100327.13;5050057;28;20040;-78
2022/01/22 07:53:44;;;;;;;116.93;48.65;;;;;;;0.16;100.00;100328.03;5001129;28;20076;-78
2022/01/22 07:56:13;;;;;;;99.93;48.53;;;;;;;0.31;100.00;100324.72;5035448;28;20028;-78
2022/01/22 07:58:39;;;;;;;45.22;27.08;;;;;;;0.53;100.00;100335.09;5001435;28;20055;-78
2022/01/22 08:01:05;;;;;;;36.47;23.88;;;;;;;0.54;100.00;100337.66;5052982;28;20040;-78
2022/01/22 08:03:32;;;;;;;36.20;21.70;;;;;;;0.46;100.00;100323.94;5052797;28;20037;-78
2022/01/22 08:05:57;;;;;;;49.50;27.77;;;;;;;0.59;100.00;100338.56;5052584;28;20309;-78
2022/01/22 08:08:23;;;;;;;43.08;22.48;;;;;;;0.42;100.00;100317.06;5051615;28;20705;-78
2022/01/22 08:10:50;;;;;;;44.97;23.40;;;;;;;0.59;100.00;100314.59;5052569;28;20029;-78
2022/01/22 08:13:18;;;;;;;25.00;14.88;;;;;;;0.81;100.00;100320.69;5052650;28;20033;-78
2022/01/22 08:15:48;;;;;;;32.53;18.67;;;;;;;1.02;100.00;100343.00;5052354;28;20036;-78
2022/01/22 08:18:13;;;;;;;38.50;21.23;;;;;;;1.09;100.00;100327.59;5052492;28;20465;-78
2022/01/22 08:20:41;;;;;;;51.95;21.98;;;;;;;1.27;100.00;100331.94;5051266;28;20028;-78
2022/01/22 08:23:06;;;;;;;47.75;20.77;;;;;;;1.30;100.00;100343.91;5040996;28;20086;-78
2022/01/22 08:25:33;;;;;;;52.30;22.23;;;;;;;1.44;100.00;100348.22;5044713;28;20440;-78
2022/01/22 08:30:37;;;;;;;52.72;21.65;;;;;;;1.33;100.00;100339.63;5043980;28;20033;-78
2022/01/22 08:33:30;;;;;;;50.05;22.45;;;;;;;1.34;100.00;100367.00;5047107;28;20492;-78
2022/01/22 08:35:52;;;;;;;35.05;19.33;;;;;;;1.40;100.00;100361.91;5048966;28;20072;-78
2022/01/22 08:38:23;;;;;;;34.40;17.52;;;;;;;1.23;100.00;100367.00;5043212;28;20073;-78
2022/01/22 08:40:52;;;;;;;44.65;21.20;;;;;;;1.06;100.00;100352.41;5029723;28;20033;-78
2022/01/22 08:43:18;;;;;;;54.20;26.83;;;;;;;1.15;100.00;100365.28;5029842;28;20033;-78
2022/01/22 08:45:45;;;;;;;48.80;22.30;;;;;;;1.08;100.00;100371.22;5029749;28;20136;-78
2022/01/22 08:48:13;;;;;;;39.70;19.80;;;;;;;1.07;100.00;100346.44;5029855;28;20440;-78
2022/01/22 08:50:38;;;;;;;41.42;21.77;;;;;;;1.18;100.00;100381.53;5029948;28;20087;-78
2022/01/22 08:53:05;;;;;;;47.22;25.20;;;;;;;1.11;100.00;100384.91;5029451;28;20029;-78
2022/01/22 08:55:35;;;;;;;29.95;15.73;;;;;;;0.94;100.00;100376.31;5036692;28;20032;-78
2022/01/22 08:58:02;;;;;;;26.70;17.80;;;;;;;0.96;100.00;100383.13;5048891;28;20493;-78
2022/01/22 09:00:28;;;;;;;28.60;16.90;;;;;;;0.85;100.00;100374.56;5032837;28;20091;-78
2022/01/22 09:02:53;;;;;;;30.38;17.58;;;;;;;0.89;100.00;100395.94;5049204;28;20041;-78
2022/01/22 09:05:20;;;;;;;24.02;15.43;;;;;;;0.78;100.00;100387.34;5032681;28;20040;-78
2022/01/22 09:07:45;;;;;;;40.60;19.98;;;;;;;0.66;100.00;100401.81;5049204;28;20032;-80
2022/01/22 09:10:12;;;;;;;28.50;17.15;;;;;;;0.50;100.00;100393.16;5037504;28;20037;-79
2022/01/22 09:12:37;;;;;;;39.25;18.90;;;;;;;0.48;100.00;100411.94;5052050;28;20044;-79
2022/01/22 09:15:03;;;;;;;36.38;18.80;;;;;;;0.43;100.00;100409.38;5050466;28;20017;-79
2022/01/22 09:17:29;;;;;;;27.30;13.35;;;;;;;0.37;100.00;100428.94;5050364;28;20530;-76
2022/01/22 09:19:57;;;;;;;23.30;12.82;;;;;;;0.27;100.00;100412.66;5051642;28;20025;-84
2022/01/22 09:22:24;;;;;;;29.42;15.63;;;;;;;0.15;100.00;100408.28;5051772;28;20029;-80
2022/01/22 09:24:50;;;;;;;22.25;12.93;;;;;;;-0.02;100.00;100400.47;5051404;28;20488;-80
2022/01/22 09:27:16;;;;;;;31.00;16.83;;;;;;;0.04;100.00;100417.59;5051157;28;20029;-78
2022/01/22 09:29:42;;;;;;;26.65;13.07;;;;;;;0.04;100.00;100432.09;5048134;28;20028;-78
2022/01/22 09:32:08;;;;;;;32.42;15.73;;;;;;;0.02;100.00;100434.66;5035973;28;20037;-81
2022/01/22 09:34:34;;;;;;;31.13;13.75;;;;;;;0.03;100.00;100432.94;5034573;28;20060;-80
2022/01/22 09:37:00;;;;;;;20.85;10.38;;;;;;;-0.06;100.00;100424.34;5035850;28;20021;-83
2022/01/22 09:39:25;;;;;;;20.73;11.77;;;;;;;-0.09;100.00;100428.56;5035549;28;20036;-83
2022/01/22 09:41:51;;;;;;;25.52;12.95;;;;;;;-0.15;100.00;100420.84;5034325;28;20022;-81
2022/01/22 09:44:16;;;;;;;33.17;16.73;;;;;;;0.01;100.00;100450.88;5035798;28;20021;-79
2022/01/22 09:46:44;;;;;;;45.55;20.13;;;;;;;0.04;100.00;100456.00;5035960;28;20040;-77
2022/01/22 09:49:11;;;;;;;38.17;16.90;;;;;;;-0.09;100.00;100428.56;5035299;28;20076;-79
2022/01/22 09:51:36;;;;;;;27.88;12.65;;;;;;;-0.11;100.00;100432.84;5034254;28;20033;-79
2022/01/22 09:54:02;;;;;;;19.27;11.32;;;;;;;-0.09;100.00;100443.94;5035158;28;20017;-80
2022/01/22 09:56:28;;;;;;;26.52;14.60;;;;;;;-0.15;100.00;100431.94;5035602;28;20036;-79
2022/01/22 09:58:55;;;;;;;19.08;10.13;;;;;;;-0.08;100.00;100450.81;5022475;28;20054;-80
2022/01/22 10:01:33;;;;;;;31.88;16.02;;;;;;;-0.12;100.00;100436.25;4998025;28;20037;-80
2022/01/22 10:04:01;;;;;;;26.23;14.65;;;;;;;-0.11;100.00;100440.53;4997502;28;20056;-79
2022/01/22 10:06:29;;;;;;;29.05;17.73;;;;;;;-0.05;100.00;100456.78;5019754;28;20029;-80
2022/01/22 10:09:13;;;;;;;33.45;17.45;;;;;;;-0.11;100.00;100441.38;5017793;28;20470;-79
2022/01/22 10:11:39;;;;;;;26.02;14.93;;;;;;;-0.01;100.00;100463.66;5017522;28;20112;-80
2022/01/22 10:14:06;;;;;;;29.98;17.35;;;;;;;0.12;100.00;100481.69;4997360;28;20037;-79
2022/01/22 10:16:34;;;;;;;29.98;15.43;;;;;;;0.04;100.00;100452.59;4973436;28;20545;-80
2022/01/22 10:19:18;;;;;;;31.77;14.10;;;;;;;0.07;100.00;100461.16;4957099;28;20395;-80
2022/01/22 10:21:56;;;;;;;29.98;13.43;;;;;;;0.16;100.00;100484.28;4973652;28;20053;-80
2022/01/22 10:24:41;;;;;;;20.58;10.30;;;;;;;0.05;100.00;100474.81;4973676;28;20094;-80
2022/01/22 10:27:32;;;;;;;25.48;12.18;;;;;;;0.02;100.00;100500.38;4956452;28;20088;-80
2022/01/22 10:30:10;;;;;;;22.10;11.55;;;;;;;0.08;100.00;100508.13;4973510;28;20039;-80
2022/01/22 10:35:15;;;;;;;74.55;31.92;;;;;;;0.13;100.00;100493.69;4972941;28;20390;-80
2022/01/22 10:37:41;;;;;;;31.23;15.82;;;;;;;0.27;100.00;100491.22;4956309;28;20118;-80
2022/01/22 10:40:40;;;;;;;41.20;17.25;;;;;;;0.43;100.00;100506.75;4972320;28;20114;-80
2022/01/22 10:48:58;;;;;;;20.00;9.75;;;;;;;0.55;100.00;100505.09;4877741;29;20512;-80
2022/01/22 10:51:27;;;;;;;26.35;11.57;;;;;;;0.49;100.00;100509.34;4878195;29;20085;-80
2022/01/22 10:54:01;;;;;;;20.88;11.10;;;;;;;0.38;100.00;100500.72;4877728;29;20037;-80
2022/01/22 10:56:29;;;;;;;19.73;9.65;;;;;;;0.35;100.00;100493.00;4862378;29;20033;-82
2022/01/22 10:59:07;;;;;;;26.67;11.95;;;;;;;0.54;100.00;100523.91;4889515;29;20428;-79
2022/01/22 11:01:53;;;;;;;25.60;12.00;;;;;;;0.52;100.00;100528.19;4896632;29;20060;-82
2022/01/22 11:04:25;;;;;;;22.35;11.85;;;;;;;0.46;100.00;100511.03;4880746;29;20445;-78
2022/01/22 11:07:00;;;;;;;20.77;10.60;;;;;;;0.49;100.00;100504.22;4896156;29;20055;-80
2022/01/22 11:09:29;;;;;;;19.88;11.43;;;;;;;0.65;100.00;100525.72;4881087;29;20037;-77
2022/01/22 11:11:59;;;;;;;19.25;10.18;;;;;;;0.86;100.00;100530.13;4880839;29;20141;-77
2022/01/22 11:14:28;;;;;;;23.33;12.00;;;;;;;0.93;100.00;100524.22;4896416;29;20129;-77
2022/01/22 11:16:54;;;;;;;18.90;9.40;;;;;;;1.26;100.00;100535.50;4896164;29;20068;-77
2022/01/22 11:19:33;;;;;;;15.57;8.30;;;;;;;1.34;100.00;100527.84;4896153;29;20075;-77
2022/01/22 11:22:11;;;;;;;13.65;7.35;;;;;;;1.39;100.00;100518.47;4896098;29;20040;-77
2022/01/22 11:24:59;;;;;;;13.40;7.28;;;;;;;1.47;100.00;100542.44;4909818;28;20086;-77
2022/01/22 11:27:24;;;;;;;14.73;8.52;;;;;;;1.43;100.00;100522.75;4972637;28;20050;-76
2022/01/22 11:30:13;;;;;;;23.40;10.75;;;;;;;1.39;100.00;100546.69;4972412;28;20478;-76
2022/01/22 11:32:48;;;;;;;17.08;9.55;;;;;;;1.50;100.00;100561.31;4972461;28;20045;-75
2022/01/22 11:35:22;;;;;;;18.52;10.10;;;;;;;1.50;100.00;100558.72;4972378;28;20062;-75
2022/01/22 11:37:57;;;;;;;16.67;8.63;;;;;;;1.44;100.00;100555.28;4971942;28;20125;-76
2022/01/22 11:40:27;;;;;;;13.98;6.70;;;;;;;1.49;99.92;100557.03;4988100;28;20038;-75
2022/01/22 11:43:07;;;;;;;14.50;7.70;;;;;;;1.44;99.73;100566.41;4971873;28;20034;-80
2022/01/22 11:45:51;;;;;;;18.52;8.45;;;;;;;1.33;99.64;100572.34;4972081;28;20037;-80
2022/01/22 11:48:27;;;;;;;16.70;8.90;;;;;;;1.39;99.74;100574.94;4972065;28;20109;-80
2022/01/22 11:51:23;;;;;;;10.55;5.65;;;;;;;1.34;97.66;100574.03;4971115;28;20042;-79
2022/01/22 11:54:00;;;;;;;11.43;5.82;;;;;;;1.32;98.76;100571.47;4971857;28;20043;-79
2022/01/22 11:56:55;;;;;;;19.13;7.70;;;;;;;1.44;98.82;100580.97;4971871;28;20092;-80
2022/01/22 11:59:30;;;;;;;13.80;6.63;;;;;;;1.45;97.09;100580.97;4952167;29;20388;-80
2022/01/22 12:01:59;;;;;;;17.40;8.98;;;;;;;1.37;96.76;100574.94;4951674;28;20569;-83
2022/01/22 12:04:45;;;;;;;15.05;7.60;;;;;;;1.39;96.53;100600.59;4952471;29;20122;-84
2022/01/22 12:07:16;;;;;;;14.70;6.80;;;;;;;1.30;95.61;100597.97;4952658;29;20039;-83
2022/01/22 12:10:04;;;;;;;11.90;6.72;;;;;;;1.27;95.44;100614.22;4952748;29;20047;-82
2022/01/22 12:15:35;;;;;;;15.23;7.22;;;;;;;1.12;96.00;100616.69;4971768;28;20042;-81
2022/01/22 12:18:11;;;;;;;14.75;7.53;;;;;;;1.16;97.42;100616.72;4990628;28;20478;-80
2022/01/22 12:21:30;;;;;;;12.95;6.72;;;;;;;1.19;97.69;100621.88;4991100;28;20038;-81
2022/01/22 12:23:31;;;;;;;16.70;7.13;;;;;;;1.23;98.43;100628.75;4990881;28;20030;-80
2022/01/22 12:25:58;;;;;;;11.02;6.45;;;;;;;1.09;96.91;100608.94;4990642;28;20069;-81
2022/01/22 12:28:45;;;;;;;15.10;8.25;;;;;;;1.03;96.16;100611.50;4974315;28;20046;-81
2022/01/22 12:31:17;;;;;;;25.17;12.77;;;;;;;1.01;96.23;100619.16;4971224;28;20034;-84
2022/01/22 12:33:42;;;;;;;18.15;9.35;;;;;;;1.05;96.29;100633.72;4987071;28;20134;-83
2022/01/22 12:36:08;;;;;;;15.93;8.35;;;;;;;1.05;96.62;100631.16;4987560;28;20121;-81
2022/01/22 12:38:51;;;;;;;16.20;7.90;;;;;;;0.86;96.95;100619.03;5012474;28;20029;-82
2022/01/22 12:46:52;;;;;;;12.50;7.15;;;;;;;0.93;97.25;100637.06;5012414;28;20045;-84
2022/01/22 12:49:19;;;;;;;13.98;8.07;;;;;;;0.81;98.05;100626.72;4994715;28;20116;-84
2022/01/22 12:51:44;;;;;;;13.55;7.90;;;;;;;0.81;97.96;100638.66;4994872;28;20049;-84
2022/01/22 12:54:10;;;;;;;19.15;8.43;;;;;;;0.77;97.97;100636.94;4994595;28;20444;-84
2022/01/22 12:56:57;;;;;;;17.42;9.40;;;;;;;0.79;98.28;100646.34;5012288;28;20030;-84
2022/01/22 12:59:22;;;;;;;13.10;7.30;;;;;;;0.75;97.91;100642.03;5014017;28;20132;-80
2022/01/22 13:01:51;;;;;;;33.72;15.82;;;;;;;0.61;97.28;100631.66;4993618;28;20121;-81